Time;durP1;ratioP1;P1;durP2;ratioP2;P2;SDS_P1;SDS_P2;PMS_P1;PMS_P2;Temp;Humidity;BMP_temperature;BMP_pressure;BME280_temperature;BME280_humidity;BME280_pressure;Samples;Min_cycle;Max_cycle;Signal;HPM_P1;HPM_P2
2023/12/04 00:01:35;;;;;;;15.80;8.15;;;;;;;0.60;100.00;101228.44;6082019;19;20357;-73
2023/12/04 00:03:45;;;;;;;15.15;7.38;;;;;;;0.61;100.00;101234.50;6086773;19;20534;-73
2023/12/04 00:05:50;;;;;;;19.10;7.53;;;;;;;0.54;100.00;101223.22;6088951;19;20013;-73
2023/12/04 00:07:55;;;;;;;21.23;8.30;;;;;;;0.54;100.00;101231.00;6084994;19;20302;-73
2023/12/04 00:10:00;;;;;;;16.60;7.72;;;;;;;0.64;100.00;101224.16;6086484;19;20331;-74
2023/12/04 00:12:06;;;;;;;19.77;7.20;;;;;;;0.61;100.00;101221.56;6083994;19;20000;-74
2023/12/04 00:14:11;;;;;;;15.30;7.00;;;;;;;0.61;100.00;101213.81;6086817;19;20003;-74
2023/12/04 00:16:16;;;;;;;18.67;7.85;;;;;;;0.59;100.00;101212.94;6084784;19;20030;-74
2023/12/04 00:18:21;;;;;;;18.33;7.60;;;;;;;0.60;100.00;101209.47;6086068;19;19999;-73
2023/12/04 00:20:29;;;;;;;24.17;7.93;;;;;;;0.54;100.00;101215.47;6087041;19;20601;-73
2023/12/04 00:22:34;;;;;;;15.32;7.63;;;;;;;0.56;100.00;101203.44;6088782;19;20041;-75
2023/12/04 00:24:38;;;;;;;15.88;8.88;;;;;;;0.55;100.00;101204.25;6087397;19;20030;-74
2023/12/04 00:26:43;;;;;;;24.08;9.23;;;;;;;0.58;100.00;101206.91;6086683;19;19998;-74
2023/12/04 00:28:48;;;;;;;14.57;7.60;;;;;;;0.59;100.00;101187.06;6088566;19;20006;-74
2023/12/04 00:30:53;;;;;;;14.55;6.95;;;;;;;0.64;100.00;101195.72;6081217;19;20353;-73
2023/12/04 00:32:59;;;;;;;14.98;7.00;;;;;;;0.73;100.00;101193.16;6088547;19;20106;-73
2023/12/04 00:35:05;;;;;;;20.35;7.70;;;;;;;0.75;100.00;101188.88;6086419;19;20010;-73
2023/12/04 00:37:12;;;;;;;24.23;8.32;;;;;;;0.76;100.00;101185.41;6087049;19;20310;-74
2023/12/04 00:39:18;;;;;;;18.13;6.88;;;;;;;0.69;100.00;101190.59;6086873;19;20051;-75
2023/12/04 00:41:23;;;;;;;17.23;7.20;;;;;;;0.64;100.00;101175.88;6084679;19;20577;-75
2023/12/04 00:43:28;;;;;;;16.52;9.30;;;;;;;0.69;100.00;101177.66;6090017;19;20018;-75
2023/12/04 00:45:34;;;;;;;21.88;9.50;;;;;;;0.59;100.00;101175.00;6088192;19;20007;-76
2023/12/04 00:47:39;;;;;;;17.42;8.32;;;;;;;0.58;100.00;101178.44;6090202;19;20050;-73
2023/12/04 00:49:44;;;;;;;13.45;7.35;;;;;;;0.59;100.00;101179.31;6088395;19;20331;-76
2023/12/04 00:51:49;;;;;;;22.00;8.07;;;;;;;0.59;100.00;101179.31;6084605;19;20822;-77
2023/12/04 00:53:56;;;;;;;16.65;6.78;;;;;;;0.59;100.00;101172.41;6085102;19;20503;-73
2023/12/04 00:56:02;;;;;;;17.50;7.43;;;;;;;0.54;100.00;101181.00;6087727;19;20478;-74
2023/12/04 00:58:06;;;;;;;16.63;7.63;;;;;;;0.50;100.00;101169.78;6086793;19;20010;-75
2023/12/04 01:00:13;;;;;;;18.15;7.40;;;;;;;0.58;100.00;101177.56;6083600;19;20460;-76
2023/12/04 01:02:18;;;;;;;13.55;7.35;;;;;;;0.61;100.00;101165.53;6085550;19;20011;-75
2023/12/04 01:04:23;;;;;;;15.00;7.13;;;;;;;0.64;100.00;101157.78;6085049;19;20042;-75
2023/12/04 01:06:29;;;;;;;16.13;7.25;;;;;;;0.65;100.00;101166.41;6087031;19;20601;-76
2023/12/04 01:08:34;;;;;;;13.80;6.00;;;;;;;0.65;100.00;101158.66;6086726;19;20045;-75
2023/12/04 01:10:42;;;;;;;14.20;6.72;;;;;;;0.64;100.00;101156.94;6086191;19;20010;-75
2023/12/04 01:12:47;;;;;;;16.63;8.02;;;;;;;0.67;100.00;101151.75;6086744;19;20055;-75
2023/12/04 01:14:52;;;;;;;14.52;6.90;;;;;;;0.76;100.00;101148.34;6085763;19;20046;-75
2023/12/04 01:16:57;;;;;;;14.40;6.28;;;;;;;0.77;100.00;101142.34;6056489;19;20015;-75
2023/12/04 01:19:02;;;;;;;15.32;6.55;;;;;;;0.68;100.00;101134.53;6081121;19;20002;-73
2023/12/04 01:21:08;;;;;;;13.18;6.72;;;;;;;0.71;100.00;101147.47;6086386;19;20018;-73
2023/12/04 01:23:13;;;;;;;18.83;8.13;;;;;;;0.70;100.00;101138.84;6084000;19;20018;-73
2023/12/04 01:25:16;;;;;;;14.13;7.22;;;;;;;0.65;100.00;101133.63;6084803;19;20011;-74
2023/12/04 01:27:23;;;;;;;17.33;8.07;;;;;;;0.65;100.00;101132.78;6086484;19;20011;-73
2023/12/04 01:29:28;;;;;;;11.88;5.40;;;;;;;0.77;100.00;101132.00;6083800;19;20013;-73
2023/12/04 01:31:36;;;;;;;21.65;7.38;;;;;;;0.72;100.00;101129.38;6084072;19;20019;-73
2023/12/04 01:33:41;;;;;;;14.70;6.63;;;;;;;0.79;100.00;101128.56;6087510;19;20011;-73
2023/12/04 01:35:46;;;;;;;15.95;6.57;;;;;;;0.71;100.00;101119.91;6087592;19;20007;-73
2023/12/04 01:37:48;;;;;;;13.02;5.90;;;;;;;0.77;100.00;101113.88;6083494;19;20015;-73
2023/12/04 01:39:53;;;;;;;16.23;7.03;;;;;;;0.77;100.00;101112.16;6084609;19;20042;-72
2023/12/04 01:41:58;;;;;;;18.15;8.40;;;;;;;0.75;100.00;101108.69;6085875;19;20032;-73
2023/12/04 01:44:06;;;;;;;15.02;6.47;;;;;;;0.73;100.00;101107.81;6079917;19;20010;-73
2023/12/04 01:46:11;;;;;;;21.05;7.68;;;;;;;0.74;100.00;101103.50;6084316;19;20011;-73
2023/12/04 01:48:17;;;;;;;24.27;9.13;;;;;;;0.72;100.00;101100.94;6084102;19;20098;-73
2023/12/04 01:50:23;;;;;;;15.00;6.60;;;;;;;0.78;100.00;101092.31;6085983;19;20326;-73
2023/12/04 01:52:25;;;;;;;13.65;6.70;;;;;;;0.86;100.00;101096.66;6083073;19;20763;-73
2023/12/04 01:54:31;;;;;;;13.68;8.00;;;;;;;0.81;100.00;101088.00;6080984;19;20023;-73
2023/12/04 01:56:38;;;;;;;19.90;7.07;;;;;;;0.83;100.00;101096.66;6082265;19;20011;-73
2023/12/04 01:58:46;;;;;;;21.27;6.70;;;;;;;0.84;100.00;101097.50;6079607;19;20024;-73
2023/12/04 02:00:54;;;;;;;14.68;6.38;;;;;;;0.85;100.00;101089.75;6075817;19;20007;-73
2023/12/04 02:03:00;;;;;;;16.00;6.75;;;;;;;0.82;100.00;101100.09;6080880;19;20014;-73
2023/12/04 02:05:05;;;;;;;17.23;7.20;;;;;;;0.82;100.00;101087.16;6075010;19;20034;-73
2023/12/04 02:07:10;;;;;;;19.08;7.93;;;;;;;0.77;100.00;101088.88;6082400;19;20265;-72
2023/12/04 02:09:16;;;;;;;15.52;5.57;;;;;;;0.82;100.00;101084.59;6081362;19;20010;-73
2023/12/04 02:11:20;;;;;;;11.35;5.88;;;;;;;0.82;100.00;101089.75;6083736;19;20017;-73
2023/12/04 02:13:26;;;;;;;17.73;6.63;;;;;;;0.83;100.00;101086.31;6083773;19;20029;-73
2023/12/04 02:15:31;;;;;;;15.90;6.40;;;;;;;0.80;100.00;101075.09;6081492;19;20450;-73
2023/12/04 02:17:39;;;;;;;15.35;6.55;;;;;;;0.82;100.00;101073.38;6081794;19;20007;-74
2023/12/04 02:19:45;;;;;;;13.50;6.25;;;;;;;0.89;100.00;101077.69;6081461;19;20002;-74
2023/12/04 02:21:50;;;;;;;12.27;5.47;;;;;;;0.86;100.00;101070.78;6081547;19;20007;-74
2023/12/04 02:23:57;;;;;;;11.85;5.47;;;;;;;0.98;100.00;101063.94;6081349;19;20002;-74
2023/12/04 02:26:02;;;;;;;12.15;6.25;;;;;;;0.97;100.00;101067.38;6080522;19;20039;-74
2023/12/04 02:28:10;;;;;;;12.30;7.05;;;;;;;0.99;100.00;101068.25;6082610;19;20092;-74
2023/12/04 02:30:22;;;;;;;13.60;6.32;;;;;;;0.93;100.00;101066.50;6082638;19;20841;-74
2023/12/04 02:32:31;;;;;;;15.63;6.00;;;;;;;0.99;100.00;101063.06;6081944;19;20014;-74
2023/12/04 02:34:37;;;;;;;12.05;5.78;;;;;;;0.96;100.00;101055.28;6081228;19;20017;-74
2023/12/04 02:36:46;;;;;;;10.85;7.43;;;;;;;0.97;100.00;101044.94;6080419;19;20463;-75
2023/12/04 02:38:48;;;;;;;12.63;5.70;;;;;;;0.90;100.00;101048.38;6081335;19;20015;-74
2023/12/04 02:40:56;;;;;;;13.82;7.05;;;;;;;0.91;100.00;101047.53;6080707;19;20009;-74
2023/12/04 02:42:59;;;;;;;13.40;6.45;;;;;;;1.00;100.00;101046.66;6083125;19;20715;-74
2023/12/04 02:45:04;;;;;;;;;;;;;;;0.94;100.00;101044.06;6082663;19;20007;-74
2023/12/04 02:47:09;;;;;;;15.07;6.72;;;;;;;0.95;100.00;101043.19;6079909;19;19919;-72
2023/12/04 02:49:15;;;;;;;15.20;6.97;;;;;;;0.96;100.00;101037.19;6080779;19;20010;-73
2023/12/04 02:51:20;;;;;;;11.88;5.88;;;;;;;0.96;100.00;101038.03;6082299;19;20015;-72
2023/12/04 02:53:25;;;;;;;24.52;7.22;;;;;;;0.99;100.00;101035.47;6077238;19;20437;-74
2023/12/04 02:55:30;;;;;;;11.00;6.38;;;;;;;0.99;100.00;101029.44;6080985;19;21130;-73
2023/12/04 02:57:38;;;;;;;17.52;7.15;;;;;;;0.98;100.00;101028.56;6081514;19;20094;-73
2023/12/04 02:59:46;;;;;;;11.25;4.90;;;;;;;0.98;100.00;101025.13;6081958;19;20019;-72
2023/12/04 03:01:51;;;;;;;13.60;6.30;;;;;;;0.98;100.00;101025.13;6082838;19;20006;-72
2023/12/04 03:03:55;;;;;;;12.82;5.93;;;;;;;0.92;100.00;101018.19;6079042;19;20017;-72
2023/12/04 03:05:58;;;;;;;8.55;5.25;;;;;;;0.98;100.00;101017.38;6082851;19;20018;-72
2023/12/04 03:08:03;;;;;;;9.57;5.40;;;;;;;0.96;100.00;101009.59;6081461;19;20010;-72
2023/12/04 03:10:09;;;;;;;14.48;5.68;;;;;;;1.03;100.00;100994.94;6080845;19;20404;-73
2023/12/04 03:12:14;;;;;;;13.93;5.25;;;;;;;1.03;100.00;100994.94;6082543;19;20020;-72
2023/12/04 03:14:21;;;;;;;10.45;5.53;;;;;;;1.00;100.00;100985.44;6079639;19;20011;-72
2023/12/04 03:16:28;;;;;;;13.23;5.43;;;;;;;1.05;100.00;100993.19;6079649;19;20125;-72
2023/12/04 03:18:35;;;;;;;9.98;4.80;;;;;;;1.06;100.00;100982.84;6081557;19;21705;-72
2023/12/04 03:20:42;;;;;;;12.73;4.53;;;;;;;1.06;100.00;100980.28;6081402;19;20011;-72
2023/12/04 03:22:46;;;;;;;9.13;4.13;;;;;;;1.06;100.00;100972.50;6081822;19;20007;-72
2023/12/04 03:24:49;;;;;;;11.82;5.43;;;;;;;1.05;100.00;100967.31;6080792;19;20034;-72
2023/12/04 03:26:53;;;;;;;9.75;5.03;;;;;;;1.07;100.00;100963.00;6081287;19;20011;-74
2023/12/04 03:28:58;;;;;;;13.55;4.60;;;;;;;1.03;100.00;100964.75;6077076;19;20090;-73
2023/12/04 03:31:07;;;;;;;11.55;5.22;;;;;;;1.04;100.00;100960.44;6081002;19;20029;-73
2023/12/04 03:33:13;;;;;;;10.95;4.72;;;;;;;1.10;100.00;100956.09;6081354;19;20014;-72
2023/12/04 03:35:18;;;;;;;12.90;5.50;;;;;;;1.11;100.00;100959.56;6079238;19;20009;-72
2023/12/04 03:37:20;;;;;;;15.13;6.78;;;;;;;1.10;100.00;100944.88;6078978;19;20122;-72
2023/12/04 03:39:25;;;;;;;12.05;4.78;;;;;;;1.08;100.00;100942.31;6081767;19;20385;-72
2023/12/04 03:41:30;;;;;;;16.25;5.07;;;;;;;1.11;100.00;100946.63;6080796;19;20115;-73
2023/12/04 03:43:35;;;;;;;15.32;5.50;;;;;;;1.09;100.00;100933.69;6078965;19;20007;-72
2023/12/04 03:45:40;;;;;;;12.75;5.53;;;;;;;1.17;100.00;100936.28;6076413;19;20138;-72
2023/12/04 03:47:48;;;;;;;8.27;4.00;;;;;;;1.15;100.00;100932.81;6077663;19;20456;-72
2023/12/04 03:49:53;;;;;;;14.02;5.15;;;;;;;1.15;100.00;100924.19;6080200;19;20011;-73
2023/12/04 03:51:55;;;;;;;14.13;6.53;;;;;;;1.18;100.00;100926.78;6081189;19;20492;-72
2023/12/04 03:54:05;;;;;;;8.60;4.35;;;;;;;1.19;100.00;100926.78;6077234;19;20010;-72
2023/12/04 03:56:13;;;;;;;12.43;5.80;;;;;;;1.26;100.00;100928.50;6080360;19;20009;-72
2023/12/04 03:58:18;;;;;;;8.68;5.35;;;;;;;1.24;100.00;100922.47;6080976;19;20002;-72
2023/12/04 04:00:24;;;;;;;10.13;5.00;;;;;;;1.25;100.00;100919.00;6081169;19;20007;-72
2023/12/04 04:02:30;;;;;;;10.40;5.47;;;;;;;1.25;100.00;100916.41;6079078;19;20035;-73
2023/12/04 04:04:39;;;;;;;7.38;4.43;;;;;;;1.27;100.00;100906.94;6076045;19;20015;-72
2023/12/04 04:06:44;;;;;;;8.55;4.18;;;;;;;1.26;100.00;100912.97;6081569;19;20026;-72
2023/12/04 04:08:49;;;;;;;7.30;4.13;;;;;;;1.29;100.00;100901.72;6080690;19;20007;-72
2023/12/04 04:10:54;;;;;;;8.93;3.78;;;;;;;1.32;100.00;100899.16;6081050;19;20012;-72
2023/12/04 04:12:59;;;;;;;9.63;4.68;;;;;;;1.34;100.00;100899.16;6081557;19;20014;-72
2023/12/04 04:15:03;;;;;;;8.82;4.85;;;;;;;1.31;100.00;100900.00;6082936;19;20082;-73
2023/12/04 04:17:08;;;;;;;9.98;4.75;;;;;;;1.29;100.00;100893.97;6085776;19;20086;-74
2023/12/04 04:19:15;;;;;;;11.13;5.10;;;;;;;1.31;100.00;100892.25;6084421;19;20039;-73
2023/12/04 04:21:23;;;;;;;10.38;3.88;;;;;;;1.31;100.00;100892.25;6081090;19;20258;-72
2023/12/04 04:23:27;;;;;;;11.13;3.97;;;;;;;1.31;100.00;100887.91;6085951;19;20030;-73
2023/12/04 04:25:32;;;;;;;11.13;4.38;;;;;;;1.31;100.00;100877.56;6086154;19;20027;-72
2023/12/04 04:27:35;;;;;;;7.57;4.18;;;;;;;1.31;100.00;100882.75;6091877;19;20010;-73
2023/12/04 04:29:40;;;;;;;10.63;4.40;;;;;;;1.33;100.00;100874.13;6093394;19;20377;-73
2023/12/04 04:31:45;;;;;;;8.38;4.10;;;;;;;1.34;100.00;100876.69;6093096;19;20043;-73
2023/12/04 04:33:50;;;;;;;9.27;4.55;;;;;;;1.32;100.00;100883.63;6092963;19;20019;-73
2023/12/04 04:35:57;;;;;;;7.93;4.25;;;;;;;1.29;100.00;100878.44;6088146;19;20514;-73
2023/12/04 04:38:04;;;;;;;7.85;4.10;;;;;;;1.26;100.00;100878.44;6088725;19;20268;-73
2023/12/04 04:40:10;;;;;;;8.98;4.90;;;;;;;1.30;100.00;100877.59;6088477;19;20359;-72
2023/12/04 04:42:16;;;;;;;10.45;4.80;;;;;;;1.33;100.00;100880.16;6091212;19;20699;-71
2023/12/04 04:44:21;;;;;;;6.93;3.92;;;;;;;1.25;100.00;100876.72;6089509;19;20028;-72
2023/12/04 04:46:32;;;;;;;9.45;4.47;;;;;;;1.37;100.00;100878.41;6091367;19;20251;-75
2023/12/04 04:48:40;;;;;;;8.63;3.97;;;;;;;1.40;100.00;100868.09;6090572;19;20045;-72
2023/12/04 04:50:45;;;;;;;8.63;3.47;;;;;;;1.36;100.00;100861.19;6088100;19;20011;-72
2023/12/04 04:52:50;;;;;;;12.10;5.07;;;;;;;1.39;100.00;100859.44;6078367;19;20019;-72
2023/12/04 04:54:57;;;;;;;9.93;4.70;;;;;;;1.42;100.00;100856.84;6087624;19;20521;-73
2023/12/04 04:57:00;;;;;;;10.98;4.90;;;;;;;1.38;100.00;100854.28;6086968;19;20130;-71
2023/12/04 04:59:05;;;;;;;9.55;4.90;;;;;;;1.38;100.00;100842.19;6086280;19;22448;-71
2023/12/04 05:01:11;;;;;;;8.45;4.55;;;;;;;1.40;100.00;100839.59;6084116;19;20361;-71
2023/12/04 05:03:18;;;;;;;9.13;4.35;;;;;;;1.45;100.00;100840.41;6084304;19;20019;-71
2023/12/04 05:05:23;;;;;;;12.20;4.03;;;;;;;1.48;100.00;100840.44;6084616;19;20013;-72
2023/12/04 05:07:28;;;;;;;6.90;4.22;;;;;;;1.43;100.00;100840.44;6085276;19;20361;-73
2023/12/04 05:09:31;;;;;;;6.32;3.80;;;;;;;1.48;100.00;100832.66;6085185;19;20040;-72
2023/12/04 05:11:38;;;;;;;9.73;4.93;;;;;;;1.49;100.00;100827.47;6080004;19;20027;-72
2023/12/04 05:13:41;;;;;;;11.07;5.28;;;;;;;1.48;100.00;100824.91;6083865;19;20082;-72
2023/12/04 05:15:46;;;;;;;10.02;4.85;;;;;;;1.54;100.00;100827.47;6085395;19;20021;-71
2023/12/04 05:17:51;;;;;;;13.88;4.22;;;;;;;1.55;100.00;100821.41;6084719;19;20014;-71
2023/12/04 05:19:55;;;;;;;8.25;3.67;;;;;;;1.50;100.00;100816.25;6080947;19;22027;-71
2023/12/04 05:22:02;;;;;;;7.32;4.18;;;;;;;1.48;100.00;100818.00;6082248;19;20478;-71
2023/12/04 05:24:12;;;;;;;4.80;3.42;;;;;;;1.46;100.00;100809.34;6085250;19;20014;-71
2023/12/04 05:26:14;;;;;;;8.95;4.00;;;;;;;1.49;100.00;100805.91;6080224;19;20515;-73
2023/12/04 05:28:22;;;;;;;8.40;4.43;;;;;;;1.49;100.00;100813.66;6085305;19;20023;-72
2023/12/04 05:30:26;;;;;;;8.98;5.43;;;;;;;1.42;100.00;100805.06;6083507;19;20014;-70
2023/12/04 05:32:31;;;;;;;11.45;4.15;;;;;;;1.44;100.00;100802.47;6084986;19;20014;-72
2023/12/04 05:34:36;;;;;;;13.52;3.72;;;;;;;1.43;100.00;100798.16;6084586;19;20021;-72
2023/12/04 05:36:41;;;;;;;10.50;4.03;;;;;;;1.46;100.00;100808.50;6082721;19;20455;-73
2023/12/04 05:38:45;;;;;;;7.13;3.63;;;;;;;1.47;100.00;100815.38;6082072;19;20593;-73
2023/12/04 05:40:52;;;;;;;8.77;4.15;;;;;;;1.47;100.00;100807.63;6085965;19;20341;-72
2023/12/04 05:42:58;;;;;;;8.10;3.88;;;;;;;1.43;100.00;100798.16;6083001;19;20060;-74
2023/12/04 05:45:07;;;;;;;9.43;4.93;;;;;;;1.44;100.00;100808.50;6085781;19;20077;-73
2023/12/04 05:47:12;;;;;;;9.30;6.15;;;;;;;1.52;100.00;100813.66;6083593;19;20014;-73
2023/12/04 05:49:17;;;;;;;10.90;5.28;;;;;;;1.51;100.00;100817.13;6084343;19;20102;-71
2023/12/04 05:51:22;;;;;;;7.85;3.95;;;;;;;1.53;100.00;100818.84;6084757;19;20020;-71
2023/12/04 05:53:28;;;;;;;9.90;4.90;;;;;;;1.56;100.00;100810.19;6082259;19;20014;-71
2023/12/04 05:55:33;;;;;;;12.73;5.07;;;;;;;1.57;100.00;100811.03;6081793;19;20030;-71
2023/12/04 05:57:38;;;;;;;8.55;4.18;;;;;;;1.57;100.00;100808.47;6084741;19;20002;-71
2023/12/04 05:59:48;;;;;;;10.90;4.90;;;;;;;1.59;100.00;100806.72;6082447;19;20335;-74
2023/12/04 06:01:55;;;;;;;9.63;4.50;;;;;;;1.58;100.00;100802.41;6080762;19;20510;-72
2023/12/04 06:04:00;;;;;;;6.82;4.50;;;;;;;1.53;100.00;100810.22;6084690;19;20010;-75
2023/12/04 06:06:07;;;;;;;10.88;4.50;;;;;;;1.55;100.00;100805.84;6081960;19;20157;-73
2023/12/04 06:08:12;;;;;;;8.73;4.57;;;;;;;1.54;100.00;100798.97;6083862;19;20007;-74
2023/12/04 06:10:17;;;;;;;9.43;6.05;;;;;;;1.62;100.00;100806.72;6084379;19;20014;-75
2023/12/04 06:12:22;;;;;;;7.35;4.25;;;;;;;1.60;100.00;100798.94;6084343;19;20006;-73
2023/12/04 06:14:27;;;;;;;9.43;3.60;;;;;;;1.61;100.00;100786.88;6084407;19;20007;-71
2023/12/04 06:16:30;;;;;;;12.20;4.38;;;;;;;1.60;100.00;100785.97;6083125;19;20387;-74
2023/12/04 06:18:38;;;;;;;9.55;4.57;;;;;;;1.62;100.00;100778.22;6084831;19;20028;-72
2023/12/04 06:20:42;;;;;;;12.77;5.43;;;;;;;1.55;100.00;100777.38;6083008;19;20014;-72
2023/12/04 06:22:48;;;;;;;6.60;4.38;;;;;;;1.56;100.00;100773.94;6082085;19;20535;-72
2023/12/04 06:24:54;;;;;;;12.95;5.63;;;;;;;1.57;100.00;100772.19;6083111;19;20020;-72
2023/12/04 06:26:57;;;;;;;14.75;6.18;;;;;;;1.47;100.00;100774.81;6085006;19;20131;-74
2023/12/04 06:29:02;;;;;;;9.25;4.68;;;;;;;1.51;100.00;100767.91;6083648;19;20007;-73
2023/12/04 06:31:16;;;;;;;9.98;4.50;;;;;;;1.55;100.00;100761.84;6079012;19;20007;-71
2023/12/04 06:33:22;;;;;;;7.63;3.72;;;;;;;1.52;100.00;100756.69;6082113;19;20357;-72
2023/12/04 06:35:31;;;;;;;8.82;4.88;;;;;;;1.55;100.00;100761.84;6083469;19;20010;-74
2023/12/04 06:37:39;;;;;;;12.00;5.30;;;;;;;1.53;100.00;100758.41;6083742;19;20031;-73
2023/12/04 06:39:47;;;;;;;10.30;4.78;;;;;;;1.51;100.00;100757.56;6083390;19;20003;-73
2023/12/04 06:41:53;;;;;;;8.00;4.50;;;;;;;1.48;100.00;100753.25;6082910;19;20003;-72
2023/12/04 06:44:02;;;;;;;11.02;4.93;;;;;;;1.52;100.00;100751.50;6082729;19;19998;-72
2023/12/04 06:46:08;;;;;;;9.77;6.00;;;;;;;1.49;100.00;100749.78;6083079;19;20057;-73
2023/12/04 06:48:17;;;;;;;8.73;5.57;;;;;;;1.52;100.00;100746.31;6083519;19;20423;-74
2023/12/04 06:50:22;;;;;;;10.65;4.20;;;;;;;1.51;100.00;100747.19;6081521;19;20006;-75
2023/12/04 06:52:30;;;;;;;8.73;4.65;;;;;;;1.49;100.00;100746.34;6081491;19;20578;-76
2023/12/04 06:54:35;;;;;;;10.35;4.57;;;;;;;1.49;100.00;100751.50;6081926;19;20007;-74
2023/12/04 06:56:40;;;;;;;12.25;5.43;;;;;;;1.51;100.00;100754.97;6082186;19;20034;-73
2023/12/04 06:58:48;;;;;;;9.25;4.05;;;;;;;1.52;100.00;100748.91;6081453;19;20058;-74
2023/12/04 07:00:53;;;;;;;7.95;3.72;;;;;;;1.52;100.00;100739.41;6082444;19;20011;-74
2023/12/04 07:03:01;;;;;;;8.85;4.30;;;;;;;1.53;100.00;100743.72;6082103;19;20117;-73
2023/12/04 07:05:07;;;;;;;11.43;4.40;;;;;;;1.53;100.00;100743.72;6085042;19;20034;-75
2023/12/04 07:07:12;;;;;;;7.63;4.20;;;;;;;1.58;100.00;100741.13;6083634;19;20361;-73
2023/12/04 07:09:21;;;;;;;10.73;4.97;;;;;;;1.61;100.00;100735.06;6084497;19;20483;-73
2023/12/04 07:11:27;;;;;;;6.65;3.13;;;;;;;1.63;100.00;100735.91;6082749;19;20082;-74
2023/12/04 07:13:35;;;;;;;11.60;4.15;;;;;;;1.63;100.00;100726.38;6084819;19;20660;-73
2023/12/04 07:15:42;;;;;;;7.90;4.10;;;;;;;1.62;100.00;100722.09;6085354;19;20020;-72
2023/12/04 07:17:47;;;;;;;9.48;4.00;;;;;;;1.65;100.00;100726.41;6083839;19;20318;-72
2023/12/04 07:19:52;;;;;;;6.93;4.30;;;;;;;1.66;100.00;100720.34;6084174;19;20019;-73
2023/12/04 07:21:58;;;;;;;9.05;4.15;;;;;;;1.70;100.00;100722.91;6084382;19;20017;-71
2023/12/04 07:24:06;;;;;;;7.88;4.70;;;;;;;1.67;100.00;100722.06;6083453;19;20015;-71
2023/12/04 07:26:14;;;;;;;8.95;4.78;;;;;;;1.68;100.00;100706.50;6085497;19;20006;-72
2023/12/04 07:28:19;;;;;;;10.55;4.03;;;;;;;1.68;100.00;100714.28;6086109;19;20031;-74
2023/12/04 07:30:28;;;;;;;8.60;4.63;;;;;;;1.65;100.00;100703.09;6083708;19;20007;-74
2023/12/04 07:32:32;;;;;;;10.90;5.00;;;;;;;1.69;100.00;100705.66;6085605;19;20139;-74
2023/12/04 07:34:38;;;;;;;11.35;5.20;;;;;;;1.67;100.00;100704.78;6077252;19;20139;-74
2023/12/04 07:36:44;;;;;;;8.48;4.22;;;;;;;1.74;100.00;100697.88;6087601;19;20010;-73
2023/12/04 07:38:53;;;;;;;8.88;4.97;;;;;;;1.74;100.00;100693.53;6084302;19;20086;-73
2023/12/04 07:41:00;;;;;;;6.15;4.13;;;;;;;1.79;100.00;100708.16;6087445;19;20455;-72
2023/12/04 07:43:08;;;;;;;8.15;3.65;;;;;;;1.74;100.00;100708.22;6087548;19;20010;-73
2023/12/04 07:45:16;;;;;;;8.25;4.15;;;;;;;1.79;100.00;100703.88;6085466;19;20010;-73
2023/12/04 07:47:21;;;;;;;8.75;4.20;;;;;;;1.81;100.00;100699.53;6078431;19;20056;-73
2023/12/04 07:49:29;;;;;;;8.35;3.53;;;;;;;1.81;100.00;100707.28;6084671;19;20018;-73
2023/12/04 07:51:35;;;;;;;8.68;4.63;;;;;;;1.81;100.00;100706.44;6086518;19;20021;-72
2023/12/04 07:53:44;;;;;;;7.70;4.22;;;;;;;1.79;100.00;100695.22;6083615;19;20023;-73
2023/12/04 07:55:50;;;;;;;9.50;4.32;;;;;;;1.76;100.00;100698.69;6081923;19;20034;-73
2023/12/04 07:58:00;;;;;;;10.00;4.63;;;;;;;1.81;100.00;100694.34;6085489;19;20054;-74
2023/12/04 08:00:10;;;;;;;10.23;4.15;;;;;;;1.82;100.00;100711.63;6077894;19;20504;-71
2023/12/04 08:02:18;;;;;;;7.70;4.15;;;;;;;1.82;100.00;100723.69;6088589;19;20305;-73
2023/12/04 08:04:23;;;;;;;7.88;4.68;;;;;;;1.80;100.00;100723.72;6083590;19;20023;-74
2023/12/04 08:06:28;;;;;;;8.48;4.57;;;;;;;1.84;100.00;100722.81;6079019;19;20014;-71
2023/12/04 08:08:33;;;;;;;9.43;4.05;;;;;;;1.88;100.00;100726.25;6084919;19;20364;-72
2023/12/04 08:10:36;;;;;;;7.03;3.55;;;;;;;1.89;100.00;100717.59;6078922;19;20007;-72
2023/12/04 08:12:42;;;;;;;9.05;4.60;;;;;;;1.93;100.00;100716.72;6086775;19;20024;-73
2023/12/04 08:14:47;;;;;;;7.30;4.57;;;;;;;1.93;100.00;100714.13;6086343;19;20014;-73
2023/12/04 08:16:57;;;;;;;6.85;3.53;;;;;;;1.88;100.00;100701.22;6083446;19;20018;-72
2023/12/04 08:19:02;;;;;;;8.55;3.67;;;;;;;1.95;100.00;100707.22;6082079;19;20010;-73
2023/12/04 08:21:09;;;;;;;9.93;3.83;;;;;;;1.94;100.00;100708.06;6085100;19;20745;-75
2023/12/04 08:23:17;;;;;;;6.57;3.97;;;;;;;1.97;100.00;100700.28;6083326;19;20014;-74
2023/12/04 08:25:22;;;;;;;10.20;4.47;;;;;;;1.98;100.00;100696.81;6078496;19;20434;-77
2023/12/04 08:27:30;;;;;;;5.40;3.78;;;;;;;1.94;100.00;100698.56;6083949;19;20015;-74
2023/12/04 08:29:37;;;;;;;8.65;3.92;;;;;;;1.97;100.00;100698.56;6085452;19;20006;-74
2023/12/04 08:31:42;;;;;;;9.50;3.67;;;;;;;2.00;100.00;100699.38;6084130;19;20074;-72
2023/12/04 08:33:49;;;;;;;5.22;3.53;;;;;;;1.99;100.00;100695.94;6084840;19;20014;-74
2023/12/04 08:35:54;;;;;;;8.30;4.32;;;;;;;2.03;100.00;100691.59;6080557;19;20010;-73
2023/12/04 08:37:59;;;;;;;7.82;3.42;;;;;;;2.04;100.00;100688.13;6081564;19;20006;-76
2023/12/04 08:40:05;;;;;;;8.20;4.68;;;;;;;2.06;100.00;100676.88;6084923;19;20041;-74
2023/12/04 08:42:10;;;;;;;8.68;3.80;;;;;;;2.04;100.00;100676.03;6085371;19;20022;-76
2023/12/04 08:44:24;;;;;;;8.65;4.13;;;;;;;2.09;100.00;100676.00;6085689;19;20014;-74
2023/12/04 08:46:30;;;;;;;9.15;3.92;;;;;;;2.04;100.00;100678.63;6087756;19;20014;-74
2023/12/04 08:48:36;;;;;;;7.55;4.15;;;;;;;2.01;100.00;100668.28;6086823;19;20101;-74
2023/12/04 08:50:44;;;;;;;7.43;3.50;;;;;;;2.02;100.00;100670.00;6088122;19;20022;-74
2023/12/04 08:52:49;;;;;;;7.03;4.03;;;;;;;2.01;100.00;100663.09;6085678;19;20014;-74
2023/12/04 08:54:53;;;;;;;8.93;3.83;;;;;;;2.04;100.00;100660.47;6088484;19;20312;-74
2023/12/04 08:56:58;;;;;;;9.70;4.43;;;;;;;2.05;100.00;100646.63;6088576;19;20026;-73
2023/12/04 08:59:03;;;;;;;8.80;4.88;;;;;;;2.05;100.00;100654.41;6087811;19;20631;-73
2023/12/04 09:01:09;;;;;;;6.00;3.72;;;;;;;2.06;100.00;100653.56;6085570;19;20018;-72
2023/12/04 09:03:16;;;;;;;8.88;4.82;;;;;;;2.06;100.00;100660.47;6085326;19;20042;-75
2023/12/04 09:05:30;;;;;;;8.82;3.92;;;;;;;2.09;100.00;100656.13;6085945;19;20399;-76
2023/12/04 09:07:38;;;;;;;9.82;3.97;;;;;;;2.07;100.00;100646.63;6087013;19;20014;-78
2023/12/04 09:09:46;;;;;;;10.40;4.50;;;;;;;2.08;100.00;100645.75;6086274;19;20421;-73
2023/12/04 09:11:51;;;;;;;6.63;4.00;;;;;;;2.11;100.00;100646.59;6084020;19;20006;-75
2023/12/04 09:13:56;;;;;;;6.18;3.85;;;;;;;2.08;100.00;100654.41;6084817;19;20011;-76
2023/12/04 09:16:02;;;;;;;7.57;4.13;;;;;;;2.10;100.00;100657.81;6086579;19;20106;-74
2023/12/04 09:18:07;;;;;;;8.60;3.60;;;;;;;2.12;100.00;100653.50;6086167;19;20138;-78
2023/12/04 09:20:12;;;;;;;5.40;3.92;;;;;;;2.10;100.00;100644.88;6085696;19;20010;-74
2023/12/04 09:22:17;;;;;;;9.30;5.03;;;;;;;2.12;100.00;100653.50;6084249;19;20081;-73
2023/12/04 09:24:31;;;;;;;6.50;3.88;;;;;;;2.14;100.00;100656.94;6085979;19;20690;-73
2023/12/04 09:26:36;;;;;;;7.00;4.63;;;;;;;2.17;100.00;100663.84;6087274;19;20015;-75
2023/12/04 09:28:41;;;;;;;11.13;4.60;;;;;;;2.16;100.00;100662.13;6086486;19;20013;-73
2023/12/04 09:30:48;;;;;;;6.47;3.42;;;;;;;2.19;100.00;100660.34;6086672;19;20014;-74
2023/12/04 09:32:54;;;;;;;7.32;4.32;;;;;;;2.19;100.00;100662.94;6087930;19;20007;-72
2023/12/04 09:35:02;;;;;;;6.82;3.25;;;;;;;2.17;100.00;100656.06;6086753;19;20105;-72
2023/12/04 09:37:07;;;;;;;10.70;4.50;;;;;;;2.18;100.00;100650.84;6085472;19;20015;-72
2023/12/04 09:39:22;;;;;;;8.90;3.65;;;;;;;2.19;100.00;100647.41;6087313;19;20014;-75
2023/12/04 09:41:31;;;;;;;6.95;3.45;;;;;;;2.23;100.00;100649.94;6084591;19;20496;-75
2023/12/04 09:43:37;;;;;;;5.82;3.35;;;;;;;2.20;100.00;100646.50;6088802;19;20728;-76